createdAt,value
2023-01-13T00:01:50.448Z,2.55
2023-01-13T00:04:20.685Z,2.64
2023-01-13T00:06:49.468Z,2.70
2023-01-13T00:09:18.104Z,2.71
2023-01-13T00:11:47.825Z,2.73
2023-01-13T00:14:18.564Z,2.73
2023-01-13T00:16:47.218Z,2.70
2023-01-13T00:19:15.920Z,2.73
2023-01-13T00:21:45.990Z,2.77
2023-01-13T00:24:21.520Z,2.74
2023-01-13T00:26:53.005Z,2.76
2023-01-13T00:29:21.760Z,2.82
2023-01-13T00:31:51.170Z,2.77
2023-01-13T00:34:21.456Z,2.75
2023-01-13T00:36:50.079Z,2.68
2023-01-13T00:39:18.713Z,2.66
2023-01-13T00:42:05.413Z,2.73
2023-01-13T00:44:34.008Z,2.68
2023-01-13T00:47:02.584Z,2.72
2023-01-13T00:49:33.733Z,2.71
2023-01-13T00:52:03.874Z,2.68
2023-01-13T00:54:33.985Z,2.78
2023-01-13T00:57:02.640Z,2.77
2023-01-13T00:59:34.189Z,2.67
2023-01-13T01:02:03.140Z,2.61
2023-01-13T01:04:34.838Z,2.70
2023-01-13T01:07:06.765Z,2.48
2023-01-13T01:09:38.937Z,2.70
2023-01-13T01:12:07.765Z,2.80
2023-01-13T01:14:36.911Z,2.87
2023-01-13T01:17:05.760Z,2.79
2023-01-13T01:19:36.145Z,2.79
2023-01-13T01:22:05.112Z,2.62
2023-01-13T01:24:35.668Z,2.68
2023-01-13T01:27:07.313Z,2.59
2023-01-13T01:29:36.238Z,2.58
2023-01-13T01:32:07.227Z,2.49
2023-01-13T01:34:38.970Z,2.54
2023-01-13T01:37:09.701Z,2.58
2023-01-13T01:39:39.208Z,2.64
2023-01-13T01:42:25.559Z,2.68
2023-01-13T01:45:04.829Z,2.65
2023-01-13T01:47:35.299Z,2.64
2023-01-13T01:50:05.588Z,2.60
2023-01-13T01:58:17.726Z,2.59
2023-01-13T02:00:46.443Z,2.57
2023-01-13T02:03:16.549Z,2.56
2023-01-13T02:05:45.184Z,2.60
2023-01-13T02:08:15.192Z,2.69
2023-01-13T02:10:46.234Z,2.54
2023-01-13T02:13:15.746Z,2.56
2023-01-13T02:16:05.694Z,2.53
2023-01-13T02:18:45.788Z,2.50
2023-01-13T02:21:38.009Z,2.50
2023-01-13T02:24:46.876Z,2.50
2023-01-13T02:27:30.411Z,2.48
2023-01-13T02:30:19.870Z,2.49
2023-01-13T02:33:03.099Z,2.50
2023-01-13T02:35:37.476Z,2.51
2023-01-13T02:38:08.242Z,2.39
2023-01-13T02:40:39.809Z,2.34
2023-01-13T02:43:35.882Z,2.36
2023-01-13T02:46:07.519Z,2.43
2023-01-13T02:48:37.876Z,2.52
2023-01-13T02:51:09.688Z,2.44
2023-01-13T02:53:53.650Z,2.46
2023-01-13T02:56:24.361Z,2.51
2023-01-13T02:58:54.744Z,2.51
2023-01-13T03:01:23.960Z,2.62
2023-01-13T03:03:52.622Z,2.50
2023-01-13T03:06:30.400Z,2.58
2023-01-13T03:09:22.937Z,2.59
2023-01-13T03:12:06.766Z,2.53
2023-01-13T03:14:41.019Z,2.48
2023-01-13T03:17:27.648Z,2.40
2023-01-13T03:20:07.084Z,2.59
2023-01-13T03:22:38.782Z,2.50
2023-01-13T03:25:13.426Z,2.49
2023-01-13T03:28:03.375Z,2.29
2023-01-13T03:30:44.915Z,2.45
2023-01-13T03:33:19.300Z,2.49
2023-01-13T03:35:52.347Z,2.46
2023-01-13T03:38:32.386Z,2.51
2023-01-13T03:41:06.492Z,2.53
2023-01-13T03:43:56.322Z,2.54
2023-01-13T03:46:43.665Z,2.55
2023-01-13T03:49:15.378Z,2.54
2023-01-13T03:51:47.807Z,2.50
2023-01-13T03:54:18.919Z,2.46
2023-01-13T03:56:50.623Z,2.53
2023-01-13T03:59:22.323Z,2.52
2023-01-13T04:01:57.061Z,2.55
2023-01-13T04:04:31.793Z,2.39
2023-01-13T04:07:09.293Z,2.62
2023-01-13T04:09:46.769Z,2.55
2023-01-13T04:12:51.070Z,2.46
2023-01-13T04:15:25.240Z,2.52
2023-01-13T04:17:55.900Z,2.51
2023-01-13T04:20:24.597Z,2.60
2023-01-13T04:22:53.281Z,2.58
2023-01-13T04:25:22.045Z,2.60
2023-01-13T04:27:50.690Z,2.55
2023-01-13T04:30:19.426Z,2.61
2023-01-13T04:32:47.983Z,2.50
2023-01-13T04:35:19.778Z,2.46
2023-01-13T04:37:48.672Z,2.46
2023-01-13T04:40:17.533Z,2.43
2023-01-13T04:42:46.677Z,2.53
2023-01-13T04:45:15.866Z,2.57
2023-01-13T04:47:46.059Z,2.52
2023-01-13T04:50:15.092Z,2.50
2023-01-13T04:52:43.731Z,2.56
2023-01-13T04:55:16.829Z,2.59
2023-01-13T04:57:50.992Z,2.64
2023-01-13T05:00:21.987Z,2.59
2023-01-13T05:03:12.482Z,2.69
2023-01-13T05:06:11.329Z,2.68
2023-01-13T05:18:23.561Z,2.57
2023-01-13T05:20:52.403Z,2.54
2023-01-13T05:23:22.557Z,2.54
2023-01-13T05:25:51.431Z,2.57
2023-01-13T05:28:20.051Z,2.62
2023-01-13T05:30:52.686Z,2.60
2023-01-13T05:33:21.680Z,2.59
2023-01-13T05:35:53.430Z,2.56
2023-01-13T05:38:22.623Z,2.58
2023-01-13T05:41:09.386Z,2.73
2023-01-13T05:43:38.143Z,2.77
2023-01-13T05:46:14.399Z,2.82
2023-01-13T05:48:48.627Z,2.82
2023-01-13T05:51:27.896Z,2.29
2023-01-13T06:04:21.471Z,2.74
2023-01-13T06:06:53.658Z,2.89
2023-01-13T06:09:23.980Z,2.76
2023-01-13T06:11:53.089Z,2.83
2023-01-13T06:14:23.362Z,2.80
2023-01-13T06:16:58.410Z,2.67
2023-01-13T06:19:32.820Z,2.72
2023-01-13T06:22:12.153Z,2.82
2023-01-13T06:24:50.198Z,2.84
2023-01-13T06:27:31.715Z,2.80
2023-01-13T06:34:28.838Z,2.89
2023-01-13T06:37:05.516Z,2.89
2023-01-13T06:39:50.695Z,2.91
2023-01-13T06:42:42.395Z,3.13
2023-01-13T06:45:15.582Z,3.09
2023-01-13T06:58:18.065Z,2.98
2023-01-13T07:01:47.677Z,3.08
2023-01-13T07:33:38.184Z,3.36
2023-01-13T08:03:08.620Z,4.04
2023-01-13T08:05:40.773Z,4.29
2023-01-13T08:27:36.839Z,4.60
2023-01-13T08:33:08.157Z,5.37
2023-01-13T08:39:07.480Z,5.35
2023-01-13T08:42:01.991Z,5.75
2023-01-13T08:44:47.912Z,4.95
2023-01-13T08:50:04.611Z,5.71
2023-01-13T08:52:33.760Z,5.90
2023-01-13T08:55:03.469Z,5.40
2023-01-13T08:57:32.427Z,5.87
2023-01-13T09:00:01.467Z,5.76
2023-01-13T09:02:34.415Z,6.03
2023-01-13T09:05:04.362Z,6.41
2023-01-13T09:07:33.315Z,6.30
2023-01-13T09:10:22.258Z,5.66
2023-01-13T09:13:10.423Z,5.78
2023-01-13T09:15:42.787Z,6.00
2023-01-13T09:18:17.945Z,6.44
2023-01-13T09:20:56.755Z,6.28
2023-01-13T09:23:40.630Z,5.59
2023-01-13T09:26:07.172Z,5.75
2023-01-13T09:28:42.507Z,6.35
2023-01-13T09:31:50.245Z,6.85
2023-01-13T09:34:47.642Z,6.58
2023-01-13T09:37:17.007Z,6.53
2023-01-13T09:47:00.677Z,5.77
2023-01-13T09:50:03.087Z,5.46
2023-01-13T09:52:39.585Z,5.95
2023-01-13T09:55:23.794Z,6.52
2023-01-13T09:57:52.761Z,6.62
2023-01-13T10:01:04.040Z,5.64
2023-01-13T10:03:41.845Z,5.67
2023-01-13T10:09:29.792Z,6.28
2023-01-13T10:12:18.333Z,6.44
2023-01-13T10:14:55.965Z,6.83
2023-01-13T10:17:39.663Z,6.54
2023-01-13T10:20:24.737Z,6.44
2023-01-13T10:23:24.890Z,6.90
2023-01-13T10:26:18.068Z,6.94
2023-01-13T10:28:54.779Z,6.52
2023-01-13T10:31:25.579Z,6.56
2023-01-13T10:34:05.720Z,6.72
2023-01-13T10:36:37.546Z,6.92
2023-01-13T10:39:17.315Z,6.90
2023-01-13T10:41:46.697Z,6.96
2023-01-13T10:44:22.401Z,7.48
2023-01-13T10:46:56.766Z,6.76
2023-01-13T10:49:32.949Z,6.73
2023-01-13T10:52:03.273Z,6.96
2023-01-13T10:54:38.639Z,6.85
2023-01-13T10:57:24.829Z,7.04
2023-01-13T10:59:55.513Z,6.83
2023-01-13T11:02:43.063Z,7.38
2023-01-13T11:05:17.638Z,7.44
2023-01-13T11:07:52.702Z,7.46
2023-01-13T11:10:34.522Z,7.38
2023-01-13T11:13:38.607Z,7.05
2023-01-13T11:16:15.773Z,6.72
2023-01-13T11:19:04.657Z,6.43
2023-01-13T11:21:56.831Z,6.47
2023-01-13T11:24:55.882Z,6.67
2023-01-13T11:27:58.494Z,7.09
2023-01-13T11:30:49.947Z,7.50
2023-01-13T11:33:45.840Z,7.66
2023-01-13T11:36:20.951Z,7.04
2023-01-13T11:39:01.640Z,7.51
2023-01-13T11:41:48.134Z,6.70
2023-01-13T11:45:01.670Z,6.69
2023-01-13T11:50:54.530Z,6.30
2023-01-13T11:53:37.969Z,6.89
2023-01-13T11:56:54.583Z,6.97
2023-01-13T12:16:03.093Z,6.63
2023-01-13T12:19:08.115Z,6.55
2023-01-13T12:55:40.520Z,7.06
2023-01-13T13:01:45.731Z,6.84
2023-01-13T13:37:39.173Z,7.13
2023-01-13T13:40:28.331Z,7.05
2023-01-13T14:19:09.824Z,6.56
2023-01-13T14:21:39.325Z,6.19
2023-01-13T14:24:19.770Z,6.72
2023-01-13T14:33:39.591Z,6.16
2023-01-13T14:36:27.814Z,6.16
2023-01-13T14:39:11.664Z,6.14
2023-01-13T14:41:47.186Z,5.79
2023-01-13T14:44:30.996Z,5.71
2023-01-13T14:47:05.540Z,5.84
2023-01-13T14:50:04.640Z,5.92
2023-01-13T14:52:36.707Z,5.92
2023-01-13T14:55:13.912Z,5.87
2023-01-13T14:57:47.755Z,5.62
2023-01-13T15:00:19.449Z,5.79
2023-01-13T15:03:03.159Z,5.65
2023-01-13T15:05:37.125Z,5.49
2023-01-13T15:08:09.947Z,5.30
2023-01-13T15:10:51.112Z,5.23
2023-01-13T15:13:34.775Z,5.23
2023-01-13T15:16:10.983Z,5.18
2023-01-13T15:28:40.326Z,5.13
2023-01-13T15:31:13.789Z,5.12
2023-01-13T15:53:48.082Z,5.04
2023-01-13T15:56:46.709Z,5.48
2023-01-13T15:59:24.578Z,5.29
2023-01-13T16:02:03.657Z,5.53
2023-01-13T16:31:21.244Z,5.64
2023-01-13T16:50:24.535Z,5.28
2023-01-13T16:56:01.302Z,5.12
2023-01-13T17:19:15.792Z,5.27
2023-01-13T17:41:16.563Z,5.52
2023-01-13T17:43:45.226Z,5.52
2023-01-13T17:46:16.653Z,5.54
2023-01-13T17:48:45.656Z,5.37
2023-01-13T17:51:21.146Z,5.27
2023-01-13T17:53:49.714Z,5.20
2023-01-13T17:56:18.990Z,5.01
2023-01-13T17:58:47.711Z,5.05
2023-01-13T18:01:29.113Z,5.12
2023-01-13T18:04:01.590Z,5.14
2023-01-13T18:06:30.760Z,5.06
2023-01-13T18:09:05.310Z,4.95
2023-01-13T18:11:34.013Z,4.78
2023-01-13T18:14:02.649Z,4.77
2023-01-13T18:16:33.800Z,4.65
2023-01-13T18:19:20.535Z,4.88
2023-01-13T18:22:08.245Z,4.90
2023-01-13T18:24:54.686Z,4.93
2023-01-13T18:27:27.235Z,4.91
2023-01-13T18:29:58.664Z,4.86
2023-01-13T18:32:32.789Z,4.76
2023-01-13T18:35:35.975Z,4.80
2023-01-13T18:40:54.984Z,4.78
2023-01-13T18:43:28.013Z,4.76
2023-01-13T18:45:56.905Z,4.75
2023-01-13T18:48:25.998Z,4.88
2023-01-13T18:51:00.298Z,4.58
2023-01-13T18:53:37.104Z,4.70
2023-01-13T18:56:27.054Z,4.66
2023-01-13T18:59:02.281Z,4.81
2023-01-13T19:01:47.731Z,4.98
2023-01-13T19:04:20.836Z,5.09
2023-01-13T19:06:53.166Z,5.06
2023-01-13T19:15:50.105Z,5.19
2023-01-13T19:18:20.778Z,5.16
2023-01-13T19:20:52.297Z,5.30
2023-01-13T19:23:21.314Z,5.46
2023-01-13T19:25:49.798Z,5.46
2023-01-13T19:28:18.555Z,5.49
2023-01-13T19:30:48.930Z,5.43
2023-01-13T19:39:39.932Z,5.19
2023-01-13T19:45:18.520Z,5.02
2023-01-13T19:47:50.910Z,5.00
2023-01-13T19:50:19.865Z,4.87
2023-01-13T19:52:48.556Z,4.99
2023-01-13T20:14:37.132Z,5.25
2023-01-13T20:17:35.447Z,5.28
2023-01-13T20:20:11.206Z,5.26
2023-01-13T20:26:03.049Z,5.29
2023-01-13T21:12:20.155Z,5.18
2023-01-13T21:24:23.309Z,4.91
2023-01-13T21:26:55.941Z,4.81
2023-01-13T21:29:30.916Z,4.93
2023-01-13T21:32:15.961Z,4.93
2023-01-13T21:34:45.059Z,4.96
2023-01-13T21:37:15.714Z,4.88
2023-01-13T21:39:45.047Z,4.93
2023-01-13T21:42:58.086Z,4.88
2023-01-13T21:48:44.179Z,4.98
2023-01-13T21:51:16.301Z,5.08
2023-01-13T21:53:45.393Z,5.11
2023-01-13T21:56:17.092Z,4.86
2023-01-13T21:58:48.999Z,4.91
2023-01-13T22:01:24.422Z,4.99
2023-01-13T22:04:13.079Z,4.84
2023-01-13T22:06:42.276Z,4.80
2023-01-13T22:09:11.220Z,4.79
2023-01-13T22:11:51.678Z,4.77
2023-01-13T22:14:44.998Z,4.73
2023-01-13T22:17:17.825Z,4.82
2023-01-13T22:20:00.100Z,4.73
2023-01-13T22:22:54.973Z,4.65
2023-01-13T22:25:30.158Z,4.62
2023-01-13T22:28:02.126Z,4.53
2023-01-13T22:30:35.064Z,4.36
2023-01-13T22:33:03.984Z,4.40
2023-01-13T22:35:32.992Z,4.21
2023-01-13T22:38:09.633Z,4.01
2023-01-13T22:40:41.211Z,3.89
2023-01-13T22:43:10.084Z,3.84
2023-01-13T22:45:39.136Z,3.68
2023-01-13T22:48:08.335Z,3.78
2023-01-13T22:50:37.340Z,3.69
2023-01-13T22:53:06.477Z,3.70
2023-01-13T22:55:48.588Z,3.65
2023-01-13T22:58:25.008Z,3.66
2023-01-13T23:01:39.012Z,3.84
2023-01-13T23:07:03.889Z,3.87
2023-01-13T23:09:36.828Z,3.93
2023-01-13T23:12:06.152Z,3.87
2023-01-13T23:14:35.113Z,3.93
2023-01-13T23:17:04.609Z,4.00
2023-01-13T23:25:40.892Z,4.04
2023-01-13T23:28:11.011Z,4.02
2023-01-13T23:30:41.383Z,4.17
2023-01-13T23:33:14.402Z,4.18
2023-01-13T23:35:43.120Z,4.25
2023-01-13T23:38:11.732Z,4.06
2023-01-13T23:40:40.468Z,4.04
2023-01-13T23:43:09.207Z,4.15
2023-01-13T23:45:37.967Z,4.27
2023-01-13T23:48:07.421Z,4.22
2023-01-13T23:50:36.229Z,4.25
2023-01-13T23:53:05.045Z,4.44
2023-01-13T23:55:34.927Z,4.38
2023-01-13T23:58:06.467Z,4.16
